Terminal Aerodrome Forecast
Issued by NWS

Home | Current Version | Previous Version | Text Only | Print | Product List | Glossary Off
Versions: 1 2 3 4 5 6 7 8 9 10 11 12 13 14 15

579
FTUS43 KBIS 132339
TAFJMS
TAF
KJMS 132339Z 1400/1424 13009KT P6SM FEW080 FEW250
     FM140600 14006KT P6SM SCT090 BKN150 WS020/16030KT
     FM140800 14006KT P6SM VCSH SCT090 BKN100
     FM141200 12006KT 6SM -RA BKN060 OVC070
     FM141500 12008KT P6SM VCSH BKN030 OVC070
     FM141800 07009KT P6SM SCT020 OVC025=

USA.gov is the U.S. government's official web portal to all federal, state and local government web resources and services.